createdAt,value
2019-04-20T00:01:01.443Z,7.90
2019-04-20T00:03:30.931Z,7.63
2019-04-20T00:05:55.178Z,8.40
2019-04-20T00:08:26.006Z,8.10
2019-04-20T00:10:58.015Z,8.30
2019-04-20T00:13:24.308Z,8.13
2019-04-20T00:15:43.097Z,8.83
2019-04-20T00:18:13.152Z,9.07
2019-04-20T00:20:39.038Z,8.80
2019-04-20T00:23:13.480Z,9.77
2019-04-20T00:28:35.164Z,9.10
2019-04-20T00:31:04.601Z,10.50
2019-04-20T00:33:27.444Z,9.27
2019-04-20T00:35:38.100Z,10.10
2019-04-20T00:38:05.681Z,9.07
2019-04-20T00:40:32.739Z,9.77
2019-04-20T00:43:01.181Z,10.17
2019-04-20T00:45:30.582Z,10.67
2019-04-20T00:48:01.182Z,10.20
2019-04-20T00:50:34.329Z,11.27
2019-04-20T00:53:00.596Z,10.77
2019-04-20T00:55:16.912Z,10.63
2019-04-20T00:57:50.469Z,10.77
2019-04-20T01:00:26.828Z,10.73
2019-04-20T01:02:49.517Z,10.20
2019-04-20T01:05:17.966Z,10.50
2019-04-20T01:07:54.699Z,9.73
2019-04-20T01:10:17.285Z,9.63
2019-04-20T01:12:44.416Z,9.37
2019-04-20T01:15:20.912Z,9.43
2019-04-20T01:17:41.581Z,9.50
2019-04-20T01:20:06.786Z,8.67
2019-04-20T01:22:40.236Z,9.73
2019-04-20T01:25:09.766Z,8.97
2019-04-20T01:27:39.589Z,8.63
2019-04-20T01:30:07.107Z,9.30
2019-04-20T01:32:35.990Z,9.33
2019-04-20T01:35:03.906Z,8.57
2019-04-20T01:37:33.744Z,8.40
2019-04-20T01:39:50.819Z,8.67
2019-04-20T01:42:15.073Z,8.57
2019-04-20T01:44:45.275Z,8.33
2019-04-20T01:47:09.961Z,7.90
2019-04-20T01:49:38.486Z,7.60
2019-04-20T01:52:16.110Z,7.13
2019-04-20T01:54:59.416Z,7.80
2019-04-20T01:57:16.525Z,7.53
2019-04-20T01:59:47.022Z,7.30
2019-04-20T02:02:09.802Z,6.60
2019-04-20T02:04:37.581Z,6.80
2019-04-20T02:07:06.395Z,7.07
2019-04-20T02:09:32.704Z,6.60
2019-04-20T02:12:06.951Z,6.07
2019-04-20T02:14:35.160Z,6.20
2019-04-20T02:17:03.557Z,6.60
2019-04-20T02:19:34.661Z,6.60
2019-04-20T02:22:03.998Z,7.17
2019-04-20T02:24:14.854Z,6.47
2019-04-20T02:26:41.258Z,5.77
2019-04-20T02:29:31.978Z,6.17
2019-04-20T02:32:15.852Z,5.60
2019-04-20T02:34:40.133Z,5.40
2019-04-20T02:37:21.366Z,5.80
2019-04-20T02:44:34.041Z,5.53
2019-04-20T02:47:06.919Z,5.20
2019-04-20T02:51:53.871Z,5.33
2019-04-20T02:56:47.678Z,4.87
2019-04-20T02:59:42.298Z,4.90
2019-04-20T03:01:30.921Z,4.43
2019-04-20T03:03:44.972Z,4.77
2019-04-20T03:06:19.653Z,5.17
2019-04-20T03:08:56.613Z,4.97
2019-04-20T03:11:25.676Z,4.87
2019-04-20T03:13:51.678Z,5.20
2019-04-20T03:16:16.485Z,5.03
2019-04-20T03:18:39.929Z,4.83
2019-04-20T03:21:13.991Z,5.07
2019-04-20T03:23:44.430Z,5.60
2019-04-20T03:26:21.330Z,4.60
2019-04-20T03:28:54.101Z,4.77
2019-04-20T03:32:03.957Z,5.03
2019-04-20T03:36:41.534Z,4.93
2019-04-20T03:39:03.965Z,4.57
2019-04-20T03:41:19.598Z,4.50
2019-04-20T03:43:39.008Z,4.83
2019-04-20T03:46:10.580Z,4.50
2019-04-20T03:48:48.556Z,4.73
2019-04-20T03:51:26.821Z,5.53
2019-04-20T03:53:52.366Z,5.10
2019-04-20T03:56:28.319Z,5.00
2019-04-20T03:58:50.263Z,4.43
2019-04-20T04:01:44.491Z,4.40
2019-04-20T04:04:01.456Z,4.97
2019-04-20T04:06:16.149Z,4.10
2019-04-20T04:08:36.391Z,4.10
2019-04-20T04:11:16.321Z,4.03
2019-04-20T04:13:24.837Z,4.27
2019-04-20T04:15:57.561Z,3.43
2019-04-20T04:18:25.980Z,3.80
2019-04-20T04:20:52.198Z,3.53
2019-04-20T04:23:29.574Z,4.03
2019-04-20T04:25:58.042Z,4.17
2019-04-20T04:28:18.571Z,3.63
2019-04-20T04:30:56.313Z,3.60
2019-04-20T04:33:48.949Z,3.60
2019-04-20T04:35:43.942Z,3.57
2019-04-20T04:38:15.275Z,4.00
2019-04-20T04:40:49.841Z,4.20
2019-04-20T04:43:10.366Z,4.00
2019-04-20T04:45:19.538Z,3.67
2019-04-20T04:47:45.317Z,3.80
2019-04-20T04:50:16.264Z,3.57
2019-04-20T04:52:50.537Z,3.93
2019-04-20T04:55:20.035Z,4.30
2019-04-20T04:57:34.616Z,3.80
2019-04-20T05:00:01.695Z,5.27
2019-04-20T05:02:40.439Z,4.73
2019-04-20T05:05:20.526Z,4.67
2019-04-20T05:07:38.563Z,3.77
2019-04-20T05:09:54.895Z,38.27
2019-04-20T05:12:24.284Z,12.13
2019-04-20T05:15:00.106Z,3.93
2019-04-20T05:17:39.245Z,3.87
2019-04-20T05:20:02.554Z,3.83
2019-04-20T05:22:32.129Z,4.37
2019-04-20T05:25:03.443Z,3.70
2019-04-20T05:27:31.557Z,3.50
2019-04-20T05:29:38.173Z,4.30
2019-04-20T05:32:08.171Z,3.77
2019-04-20T05:34:52.662Z,4.70
2019-04-20T05:37:28.065Z,3.37
2019-04-20T05:39:47.445Z,3.07
2019-04-20T05:42:19.175Z,3.10
2019-04-20T05:44:44.282Z,3.30
2019-04-20T05:47:08.177Z,3.33
2019-04-20T05:49:34.930Z,3.33
2019-04-20T05:52:04.071Z,3.20
2019-04-20T05:54:32.520Z,4.53
2019-04-20T05:56:56.306Z,3.33
2019-04-20T05:59:24.321Z,3.50
2019-04-20T06:02:00.447Z,3.30
2019-04-20T06:04:28.397Z,3.33
2019-04-20T06:06:49.713Z,3.30
2019-04-20T06:09:18.235Z,3.37
2019-04-20T06:11:44.834Z,3.90
2019-04-20T06:14:02.614Z,3.13
2019-04-20T06:16:45.616Z,3.83
2019-04-20T06:19:24.246Z,2.63
2019-04-20T06:21:41.731Z,2.70
2019-04-20T06:24:11.875Z,3.23
2019-04-20T06:29:02.890Z,3.23
2019-04-20T06:31:30.994Z,3.37
2019-04-20T06:34:19.333Z,3.57
2019-04-20T06:36:41.382Z,3.60
2019-04-20T06:39:13.372Z,3.80
2019-04-20T06:41:44.691Z,3.80
2019-04-20T06:44:06.500Z,3.77
2019-04-20T06:46:22.097Z,4.10
2019-04-20T06:48:51.646Z,3.70
2019-04-20T06:51:20.382Z,4.00
2019-04-20T06:53:46.941Z,4.00
2019-04-20T06:56:17.222Z,3.63
2019-04-20T06:58:49.557Z,3.53
2019-04-20T07:01:10.938Z,4.10
2019-04-20T07:03:55.885Z,4.40
2019-04-20T07:06:23.266Z,4.00
2019-04-20T07:08:56.661Z,3.73
2019-04-20T07:11:05.886Z,3.97
2019-04-20T07:13:22.083Z,3.83
2019-04-20T07:15:49.421Z,3.47
2019-04-20T07:18:29.826Z,3.07
2019-04-20T07:21:05.732Z,3.40
2019-04-20T07:25:47.866Z,3.70
2019-04-20T07:28:20.878Z,3.50
2019-04-20T07:30:45.210Z,3.43
2019-04-20T07:33:17.867Z,3.60
2019-04-20T07:35:46.163Z,3.30
2019-04-20T07:38:23.459Z,3.57
2019-04-20T07:40:28.713Z,3.43
2019-04-20T07:42:58.744Z,3.83
2019-04-20T07:45:30.728Z,3.83
2019-04-20T07:48:15.525Z,3.60
2019-04-20T07:50:37.298Z,4.23
2019-04-20T07:53:08.946Z,4.00
2019-04-20T07:55:51.052Z,4.20
2019-04-20T07:57:57.692Z,4.40
2019-04-20T08:00:44.242Z,4.53
2019-04-20T08:03:22.255Z,4.40
2019-04-20T08:05:55.289Z,4.20
2019-04-20T08:08:28.129Z,4.55
2019-04-20T08:10:54.301Z,3.70
2019-04-20T08:13:35.378Z,4.00
2019-04-20T08:15:58.760Z,4.28
2019-04-20T08:20:47.546Z,3.83
2019-04-20T08:23:17.502Z,3.65
2019-04-20T08:25:30.602Z,3.60
2019-04-20T08:28:16.744Z,3.97
2019-04-20T08:31:09.397Z,4.03
2019-04-20T08:33:44.672Z,3.87
2019-04-20T08:36:10.753Z,3.33
2019-04-20T08:38:57.824Z,3.50
2019-04-20T08:40:59.519Z,4.25
2019-04-20T08:43:42.393Z,3.70
2019-04-20T08:46:01.588Z,3.90
2019-04-20T08:48:31.409Z,3.70
2019-04-20T08:51:02.582Z,4.00
2019-04-20T08:53:25.951Z,3.25
2019-04-20T08:55:47.732Z,3.92
2019-04-20T08:57:57.444Z,3.83
2019-04-20T09:00:33.158Z,3.40
2019-04-20T09:02:58.639Z,3.37
2019-04-20T09:05:32.932Z,3.83
2019-04-20T09:08:00.529Z,3.55
2019-04-20T09:10:39.532Z,3.75
2019-04-20T09:12:57.308Z,3.85
2019-04-20T09:15:10.462Z,3.67
2019-04-20T09:17:47.476Z,3.83
2019-04-20T09:20:14.321Z,3.60
2019-04-20T09:22:49.397Z,3.42
2019-04-20T09:25:42.767Z,4.00
2019-04-20T09:27:40.792Z,4.22
2019-04-20T09:30:08.923Z,4.03
2019-04-20T09:32:39.649Z,3.90
2019-04-20T09:35:13.341Z,3.78
2019-04-20T09:37:43.410Z,3.70
2019-04-20T09:40:16.131Z,3.53
2019-04-20T09:42:22.418Z,3.95
2019-04-20T09:44:54.418Z,3.53
2019-04-20T09:47:26.467Z,3.75
2019-04-20T09:49:55.009Z,3.95
2019-04-20T09:52:29.025Z,4.12
2019-04-20T09:54:55.421Z,4.10
2019-04-20T09:57:25.469Z,4.28
2019-04-20T09:59:53.649Z,4.07
2019-04-20T10:02:13.160Z,3.95
2019-04-20T10:04:29.338Z,3.95
2019-04-20T10:07:02.559Z,3.92
2019-04-20T10:09:29.493Z,4.45
2019-04-20T10:11:51.303Z,4.60
2019-04-20T10:14:18.297Z,4.28
2019-04-20T10:16:45.254Z,4.55
2019-04-20T10:19:13.657Z,4.22
2019-04-20T10:21:39.394Z,3.72
2019-04-20T10:24:06.453Z,4.03
2019-04-20T10:26:34.444Z,4.20
2019-04-20T10:29:01.553Z,4.22
2019-04-20T10:31:28.595Z,4.10
2019-04-20T10:33:55.650Z,4.60
2019-04-20T10:36:37.932Z,4.12
2019-04-20T10:39:05.017Z,4.12
2019-04-20T10:41:40.978Z,4.40
2019-04-20T10:43:59.221Z,4.15
2019-04-20T10:46:26.914Z,3.95
2019-04-20T10:48:55.982Z,4.50
2019-04-20T10:51:21.792Z,4.30
2019-04-20T10:53:48.619Z,4.40
2019-04-20T10:56:15.816Z,3.87
2019-04-20T10:58:43.306Z,4.43
2019-04-20T11:01:09.588Z,4.30
2019-04-20T11:03:36.602Z,4.00
2019-04-20T11:06:04.708Z,4.25
2019-04-20T11:08:30.765Z,3.95
2019-04-20T11:11:07.349Z,4.00
2019-04-20T11:13:25.580Z,3.97
2019-04-20T11:15:52.678Z,3.80
2019-04-20T11:18:19.657Z,4.03
2019-04-20T11:20:46.380Z,4.12
2019-04-20T11:23:13.985Z,4.03
2019-04-20T11:25:40.581Z,4.25
2019-04-20T11:28:08.188Z,3.90
2019-04-20T11:30:36.163Z,3.58
2019-04-20T11:33:02.332Z,3.62
2019-04-20T11:35:34.433Z,3.12
2019-04-20T11:37:57.498Z,3.87
2019-04-20T11:40:23.590Z,3.62
2019-04-20T11:42:50.643Z,3.55
2019-04-20T11:45:18.424Z,3.75
2019-04-20T11:47:45.325Z,3.67
2019-04-20T11:50:11.992Z,3.78
2019-04-20T11:52:44.570Z,3.62
2019-04-20T11:55:08.849Z,3.90
2019-04-20T11:57:35.902Z,3.45
2019-04-20T12:00:03.632Z,3.65
2019-04-20T12:02:47.802Z,3.30
2019-04-20T12:05:26.267Z,3.70
2019-04-20T12:07:46.925Z,3.50
2019-04-20T12:10:18.731Z,3.60
2019-04-20T12:12:44.382Z,3.62
2019-04-20T12:15:08.615Z,3.58
2019-04-20T12:17:35.630Z,3.60
2019-04-20T12:20:02.170Z,3.87
2019-04-20T12:22:30.341Z,3.37
2019-04-20T12:24:56.374Z,3.58
2019-04-20T12:27:23.372Z,3.97
2019-04-20T12:29:52.033Z,3.90
2019-04-20T12:32:19.638Z,3.85
2019-04-20T12:34:45.551Z,4.28
2019-04-20T12:37:13.322Z,3.92
2019-04-20T12:39:39.589Z,3.80
2019-04-20T12:42:09.468Z,3.90
2019-04-20T12:44:35.486Z,4.00
2019-04-20T12:47:01.964Z,3.62
2019-04-20T12:49:29.574Z,3.62
2019-04-20T12:52:00.098Z,3.33
2019-04-20T12:54:24.730Z,3.70
2019-04-20T12:56:50.728Z,3.80
2019-04-20T12:59:17.879Z,3.97
2019-04-20T13:01:44.764Z,3.80
2019-04-20T13:04:12.142Z,3.58
2019-04-20T13:06:39.230Z,3.90
2019-04-20T13:09:06.114Z,3.40
2019-04-20T13:11:46.293Z,3.85
2019-04-20T13:14:26.325Z,3.58
2019-04-20T13:16:55.086Z,4.05
2019-04-20T13:19:21.439Z,3.97
2019-04-20T13:21:49.222Z,4.18
2019-04-20T13:24:16.697Z,3.60
2019-04-20T13:26:42.837Z,4.00
2019-04-20T13:29:10.964Z,3.72
2019-04-20T13:31:37.935Z,4.03
2019-04-20T13:34:05.393Z,3.45
2019-04-20T13:36:32.539Z,4.00
2019-04-20T13:38:59.638Z,3.83
2019-04-20T13:41:25.652Z,4.32
2019-04-20T13:43:55.750Z,3.80
2019-04-20T13:46:20.839Z,4.18
2019-04-20T13:48:48.918Z,3.97
2019-04-20T13:51:16.781Z,3.70
2019-04-20T13:53:43.405Z,3.80
2019-04-20T13:56:10.245Z,3.55
2019-04-20T13:58:58.086Z,3.90
2019-04-20T14:01:34.884Z,4.00
2019-04-20T14:04:06.929Z,3.75
2019-04-20T14:06:35.160Z,3.00
2019-04-20T14:09:01.327Z,3.83
2019-04-20T14:11:29.330Z,3.97
2019-04-20T14:14:01.183Z,4.22
2019-04-20T14:16:25.032Z,3.90
2019-04-20T14:18:51.264Z,3.90
2019-04-20T14:21:18.509Z,3.65
2019-04-20T14:23:45.464Z,3.50
2019-04-20T14:26:12.824Z,4.07
2019-04-20T14:28:40.828Z,4.10
2019-04-20T14:33:41.239Z,3.50
2019-04-20T14:36:09.039Z,3.53
2019-04-20T14:38:38.322Z,3.75
2019-04-20T14:41:06.423Z,3.60
2019-04-20T14:43:33.559Z,3.37
2019-04-20T14:46:00.836Z,3.03
2019-04-20T14:48:26.881Z,3.50
2019-04-20T14:50:53.957Z,3.55
2019-04-20T14:53:21.113Z,3.70
2019-04-20T14:55:49.296Z,3.12
2019-04-20T14:58:22.073Z,3.87
2019-04-20T15:06:25.433Z,3.75
2019-04-20T15:08:52.550Z,3.40
2019-04-20T15:11:19.189Z,3.50
2019-04-20T15:13:46.988Z,3.40
2019-04-20T15:16:15.012Z,3.47
2019-04-20T15:18:45.553Z,3.53
2019-04-20T15:21:21.717Z,3.90
2019-04-20T15:23:48.272Z,3.37
2019-04-20T15:26:16.094Z,3.65
2019-04-20T15:28:42.456Z,3.60
2019-04-20T15:31:10.104Z,3.65
2019-04-20T15:33:39.090Z,3.65
2019-04-20T15:36:06.353Z,3.72
2019-04-20T15:38:36.283Z,3.50
2019-04-20T15:41:05.320Z,3.30
2019-04-20T15:43:31.309Z,3.60
2019-04-20T15:45:59.269Z,3.45
2019-04-20T15:48:25.981Z,3.58
2019-04-20T15:50:53.945Z,3.40
2019-04-20T15:53:19.765Z,3.65
2019-04-20T15:55:48.468Z,3.40
2019-04-20T15:58:14.353Z,3.80
2019-04-20T16:00:42.429Z,3.78
2019-04-20T16:03:27.562Z,3.80
2019-04-20T16:05:53.844Z,3.28
2019-04-20T16:08:25.884Z,3.60
2019-04-20T16:10:52.751Z,3.58
2019-04-20T16:13:26.307Z,3.78
2019-04-20T16:15:45.774Z,3.60
2019-04-20T16:18:12.817Z,3.55
2019-04-20T16:20:53.606Z,3.45
2019-04-20T16:23:07.029Z,3.67
2019-04-20T16:25:49.942Z,4.22
2019-04-20T16:28:17.386Z,5.22
2019-04-20T16:30:45.389Z,3.90
2019-04-20T16:33:12.418Z,3.80
2019-04-20T16:35:38.445Z,3.50
2019-04-20T16:38:08.701Z,3.80
2019-04-20T16:40:35.665Z,3.60
2019-04-20T16:43:03.694Z,3.70
2019-04-20T16:45:29.643Z,3.40
2019-04-20T16:47:58.871Z,3.60
2019-04-20T16:50:24.748Z,3.22
2019-04-20T16:52:51.061Z,3.55
2019-04-20T16:55:18.833Z,3.83
2019-04-20T16:57:47.878Z,3.97
2019-04-20T17:00:13.722Z,3.60
2019-04-20T17:02:40.433Z,3.47
2019-04-20T17:05:07.244Z,3.47
2019-04-20T17:07:57.264Z,3.97
2019-04-20T17:10:23.846Z,3.40
2019-04-20T17:13:13.604Z,4.10
2019-04-20T17:15:41.445Z,4.10
2019-04-20T17:18:09.616Z,4.10
2019-04-20T17:20:36.808Z,3.90
2019-04-20T17:23:05.593Z,4.07
2019-04-20T17:25:32.213Z,4.30
2019-04-20T17:28:04.736Z,4.25
2019-04-20T17:30:58.907Z,4.20
2019-04-20T17:33:27.856Z,4.75
2019-04-20T17:36:01.439Z,4.20
2019-04-20T17:38:20.572Z,4.65
2019-04-20T17:41:03.899Z,4.50
2019-04-20T17:43:22.095Z,4.60
2019-04-20T17:45:50.499Z,4.20
2019-04-20T17:48:18.822Z,5.40
2019-04-20T17:51:02.940Z,4.57
2019-04-20T17:53:18.695Z,4.85
2019-04-20T17:55:40.419Z,4.60
2019-04-20T17:58:01.584Z,4.20
2019-04-20T18:00:47.023Z,3.92
2019-04-20T18:03:52.853Z,4.70
2019-04-20T18:06:10.821Z,4.70
2019-04-20T18:08:31.023Z,5.22
2019-04-20T18:10:53.093Z,4.90
2019-04-20T18:13:18.053Z,5.40
2019-04-20T18:15:49.058Z,6.45
2019-04-20T18:18:35.502Z,4.93
2019-04-20T18:20:48.497Z,4.50
2019-04-20T18:23:16.370Z,4.35
2019-04-20T18:26:07.772Z,4.45
2019-04-20T18:28:26.483Z,3.97
2019-04-20T18:30:48.857Z,4.80
2019-04-20T18:33:07.866Z,4.50
2019-04-20T18:35:42.182Z,4.50
2019-04-20T18:38:07.693Z,4.25
2019-04-20T18:40:38.556Z,4.40
2019-04-20T18:43:04.539Z,4.65
2019-04-20T18:45:39.783Z,5.03
2019-04-20T18:48:11.657Z,5.20
2019-04-20T18:50:35.556Z,5.45
2019-04-20T18:53:00.085Z,5.22
2019-04-20T18:55:36.938Z,6.40
2019-04-20T18:57:53.301Z,7.40
2019-04-20T19:00:26.980Z,7.85
2019-04-20T19:02:52.425Z,7.00
2019-04-20T19:05:17.882Z,6.97
2019-04-20T19:07:57.195Z,8.10
2019-04-20T19:10:24.825Z,8.25
2019-04-20T19:12:52.235Z,8.02
2019-04-20T19:15:51.065Z,6.45
2019-04-20T19:18:23.945Z,6.75
2019-04-20T19:20:41.288Z,5.57
2019-04-20T19:23:10.240Z,5.90
2019-04-20T19:25:40.607Z,5.47
2019-04-20T19:28:08.771Z,5.78
2019-04-20T19:30:45.842Z,5.72
2019-04-20T19:33:22.695Z,5.72
2019-04-20T19:35:41.572Z,6.45
2019-04-20T19:38:11.562Z,5.62
2019-04-20T19:40:43.233Z,5.55
2019-04-20T19:43:11.748Z,5.93
2019-04-20T19:46:05.620Z,6.03
2019-04-20T19:48:12.386Z,5.82
2019-04-20T19:50:50.947Z,5.68
2019-04-20T19:53:21.185Z,5.15
2019-04-20T19:55:39.715Z,5.47
2019-04-20T19:58:01.397Z,6.03
2019-04-20T20:00:16.633Z,5.78
2019-04-20T20:02:43.639Z,5.47
2019-04-20T20:05:14.042Z,5.62
2019-04-20T20:07:42.068Z,5.78
2019-04-20T20:10:08.891Z,5.70
2019-04-20T20:12:33.655Z,5.30
2019-04-20T20:15:01.415Z,6.07
2019-04-20T20:17:48.146Z,5.80
2019-04-20T20:20:23.015Z,6.62
2019-04-20T20:22:32.343Z,5.97
2019-04-20T20:24:49.407Z,5.80
2019-04-20T20:27:26.961Z,5.80
2019-04-20T20:29:56.952Z,6.10
2019-04-20T20:32:20.201Z,5.43
2019-04-20T20:34:42.197Z,6.03
2019-04-20T20:37:10.738Z,5.57
2019-04-20T20:39:35.130Z,5.22
2019-04-20T20:42:12.858Z,6.00
2019-04-20T20:44:38.201Z,5.80
2019-04-20T20:47:00.859Z,5.85
2019-04-20T20:49:38.590Z,5.90
2019-04-20T20:52:06.722Z,5.60
2019-04-20T20:54:36.047Z,5.32
2019-04-20T20:56:54.782Z,5.85
2019-04-20T20:59:26.809Z,5.50
2019-04-20T21:01:50.390Z,5.80
2019-04-20T21:04:09.698Z,6.10
2019-04-20T21:06:36.967Z,6.03
2019-04-20T21:09:05.143Z,6.28
2019-04-20T21:11:36.101Z,6.22
2019-04-20T21:14:04.505Z,6.70
2019-04-20T21:16:52.245Z,6.40
2019-04-20T21:19:42.004Z,6.12
2019-04-20T21:22:03.038Z,6.65
2019-04-20T21:24:25.375Z,6.12
2019-04-20T21:26:53.749Z,6.20
2019-04-20T21:29:27.398Z,6.37
2019-04-20T21:31:57.078Z,6.07
2019-04-20T21:34:18.606Z,6.55
2019-04-20T21:36:43.086Z,7.22
2019-04-20T21:39:16.489Z,6.93
2019-04-20T21:41:40.820Z,6.57
2019-04-20T21:44:06.846Z,6.60
2019-04-20T21:46:39.786Z,7.22
2019-04-20T21:49:09.665Z,7.12
2019-04-20T21:51:37.322Z,7.00
2019-04-20T21:53:55.230Z,6.72
2019-04-20T21:56:19.850Z,6.87
2019-04-20T21:58:54.587Z,7.00
2019-04-20T22:01:26.326Z,7.50
2019-04-20T22:03:44.597Z,7.12
2019-04-20T22:06:10.729Z,6.72
2019-04-20T22:08:39.348Z,6.82
2019-04-20T22:11:05.822Z,6.80
2019-04-20T22:13:37.618Z,6.93
2019-04-20T22:16:05.426Z,6.95
2019-04-20T22:18:27.157Z,6.82
2019-04-20T22:21:04.689Z,7.18
2019-04-20T22:23:36.634Z,7.50
2019-04-20T22:26:03.427Z,6.90
2019-04-20T22:28:16.122Z,7.10
2019-04-20T22:30:42.344Z,8.00
2019-04-20T22:33:12.159Z,7.90
2019-04-20T22:35:44.276Z,7.63
2019-04-20T22:38:31.173Z,7.20
2019-04-20T22:41:03.851Z,7.37
2019-04-20T22:43:30.371Z,7.10
2019-04-20T22:45:54.295Z,7.27
2019-04-20T22:48:21.044Z,7.78
2019-04-20T22:51:11.928Z,7.10
2019-04-20T22:53:28.438Z,7.47
2019-04-20T22:56:04.387Z,7.40
2019-04-20T22:58:23.562Z,7.17
2019-04-20T23:00:46.743Z,6.93
2019-04-20T23:03:09.057Z,7.57
2019-04-20T23:05:34.744Z,7.03
2019-04-20T23:08:02.478Z,8.00
2019-04-20T23:10:34.784Z,7.97
2019-04-20T23:12:59.441Z,7.40
2019-04-20T23:15:23.238Z,7.80
2019-04-20T23:17:52.164Z,7.57
2019-04-20T23:20:25.263Z,6.93
2019-04-20T23:22:48.996Z,6.73
2019-04-20T23:25:11.657Z,6.80
2019-04-20T23:27:40.336Z,6.53
2019-04-20T23:30:17.498Z,6.07
2019-04-20T23:32:33.813Z,6.50
2019-04-20T23:35:04.885Z,6.77
2019-04-20T23:37:31.216Z,6.40
2019-04-20T23:39:56.062Z,6.70
2019-04-20T23:42:21.897Z,7.60
2019-04-20T23:44:54.320Z,7.27
2019-04-20T23:47:34.215Z,7.50
2019-04-20T23:50:16.293Z,7.07
2019-04-20T23:52:48.805Z,6.70
2019-04-20T23:55:01.998Z,7.03
2019-04-20T23:57:23.805Z,7.20
2019-04-20T23:59:50.270Z,7.37
